Decoded Metar for KMVH ( in ) (IATA:) | Meteo·Mobile Aviation Weather
aviador You're here:

KMVH Decoded Metar

in
Report Time2020-02-18 22:10:00
UTC Time2020-02-18 22:19:34
Flight Rules vfr VFR
Wind120° at 06 kt
Visibility9999 m
Phenomena:N/A
Clouds:Few 003 Hf
Expected CloudBase > 1,200 ft AGL from Temp-Dew spread
CeilingNone
Temp-13°C
Dew Point-16°C (78% RH)
AAT-18.6°C
QNH1023 hPa
Raw Report
METAR KMVH 182210Z AUTO 12006KT 10SM FEW003 M13/M16 A3022 RMK AO2=

Extra information for KMVH:More info

Social comments